sensor_id;sensor_type;location;lat;lon;timestamp;pressure;altitude;pressure_sealevel;temperature;humidity
50268;BME280;36153;50.960;6.220;2023-06-19T00:01:44;99919.09;;;24.63;48.13
50268;BME280;36153;50.960;6.220;2023-06-19T00:04:44;99919.56;;;24.53;48.29
50268;BME280;36153;50.960;6.220;2023-06-19T00:07:45;99920.22;;;24.41;49.18
50268;BME280;36153;50.960;6.220;2023-06-19T00:10:45;99916.13;;;24.35;49.11
50268;BME280;36153;50.960;6.220;2023-06-19T00:13:45;99917.34;;;24.46;48.65
50268;BME280;36153;50.960;6.220;2023-06-19T00:16:46;99912.19;;;24.59;47.92
50268;BME280;36153;50.960;6.220;2023-06-19T00:19:46;99924.03;;;24.85;46.88
50268;BME280;36153;50.960;6.220;2023-06-19T00:22:48;99926.94;;;25.12;45.84
50268;BME280;36153;50.960;6.220;2023-06-19T00:25:51;99926.97;;;25.27;45.62
50268;BME280;36153;50.960;6.220;2023-06-19T00:28:52;99916.91;;;25.32;45.46
50268;BME280;36153;50.960;6.220;2023-06-19T00:31:52;99925.34;;;25.24;45.64
50268;BME280;36153;50.960;6.220;2023-06-19T00:34:52;99926.75;;;25.15;45.95
50268;BME280;36153;50.960;6.220;2023-06-19T00:37:53;99918.84;;;25.14;45.85
50268;BME280;36153;50.960;6.220;2023-06-19T00:40:53;99919.78;;;25.13;46.14
50268;BME280;36153;50.960;6.220;2023-06-19T00:43:54;99918.84;;;25.14;45.99
50268;BME280;36153;50.960;6.220;2023-06-19T00:46:57;99936.19;;;25.21;45.97
50268;BME280;36153;50.960;6.220;2023-06-19T00:49:58;99937.53;;;25.28;45.49
50268;BME280;36153;50.960;6.220;2023-06-19T00:52:59;99938.22;;;25.32;45.39
50268;BME280;36153;50.960;6.220;2023-06-19T00:56:00;99938.91;;;25.35;45.60
50268;BME280;36153;50.960;6.220;2023-06-19T00:59:01;99944.06;;;25.22;45.70
50268;BME280;36153;50.960;6.220;2023-06-19T01:02:04;99945.78;;;25.24;46.26
50268;BME280;36153;50.960;6.220;2023-06-19T01:05:05;99943.28;;;25.36;45.53
50268;BME280;36153;50.960;6.220;2023-06-19T01:08:40;99946.13;;;25.33;46.73
50268;BME280;36153;50.960;6.220;2023-06-19T01:11:46;99948.81;;;25.33;45.50
50268;BME280;36153;50.960;6.220;2023-06-19T01:14:58;99957.47;;;25.37;45.69
50268;BME280;36153;50.960;6.220;2023-06-19T01:17:59;99949.13;;;25.43;45.50
50268;BME280;36153;50.960;6.220;2023-06-19T01:21:15;99952.28;;;25.50;45.52
50268;BME280;36153;50.960;6.220;2023-06-19T01:24:16;99949.88;;;25.45;45.10
50268;BME280;36153;50.960;6.220;2023-06-19T01:27:16;99959.69;;;25.45;45.12
50268;BME280;36153;50.960;6.220;2023-06-19T01:30:17;99959.22;;;25.52;44.67
50268;BME280;36153;50.960;6.220;2023-06-19T01:33:26;99953.06;;;25.66;44.31
50268;BME280;36153;50.960;6.220;2023-06-19T01:36:29;99956.50;;;25.68;44.18
50268;BME280;36153;50.960;6.220;2023-06-19T01:39:32;99959.72;;;25.59;44.20
50268;BME280;36153;50.960;6.220;2023-06-19T01:42:34;99965.09;;;25.73;43.84
50268;BME280;36153;50.960;6.220;2023-06-19T01:45:35;99975.44;;;25.64;43.76
50268;BME280;36153;50.960;6.220;2023-06-19T01:48:38;99971.50;;;25.55;44.25
50268;BME280;36153;50.960;6.220;2023-06-19T01:51:39;99978.75;;;25.53;44.49
50268;BME280;36153;50.960;6.220;2023-06-19T01:54:40;99983.44;;;25.33;45.10
50268;BME280;36153;50.960;6.220;2023-06-19T01:57:40;99991.06;;;25.24;45.59
50268;BME280;36153;50.960;6.220;2023-06-19T02:00:40;99998.03;;;25.26;45.11
50268;BME280;36153;50.960;6.220;2023-06-19T02:03:41;100001.81;;;25.22;45.48
50268;BME280;36153;50.960;6.220;2023-06-19T02:06:41;100003.81;;;24.86;46.46
50268;BME280;36153;50.960;6.220;2023-06-19T02:09:41;100016.03;;;24.75;47.53
50268;BME280;36153;50.960;6.220;2023-06-19T02:12:42;100009.00;;;24.56;48.08
50268;BME280;36153;50.960;6.220;2023-06-19T02:15:42;100015.31;;;24.37;48.67
50268;BME280;36153;50.960;6.220;2023-06-19T02:18:42;100021.28;;;24.43;48.86
50268;BME280;36153;50.960;6.220;2023-06-19T02:21:43;100020.69;;;24.20;49.89
50268;BME280;36153;50.960;6.220;2023-06-19T02:24:43;100017.78;;;24.25;50.06
50268;BME280;36153;50.960;6.220;2023-06-19T02:27:45;100030.56;;;24.18;50.52
50268;BME280;36153;50.960;6.220;2023-06-19T02:30:45;100024.31;;;24.19;51.20
50268;BME280;36153;50.960;6.220;2023-06-19T02:33:45;100029.28;;;24.08;51.35
50268;BME280;36153;50.960;6.220;2023-06-19T02:36:46;100031.53;;;23.99;51.70
50268;BME280;36153;50.960;6.220;2023-06-19T02:39:47;100041.50;;;24.12;51.48
50268;BME280;36153;50.960;6.220;2023-06-19T02:42:47;100035.41;;;24.10;51.47
50268;BME280;36153;50.960;6.220;2023-06-19T02:45:48;100039.00;;;24.09;51.16
50268;BME280;36153;50.960;6.220;2023-06-19T02:48:48;100047.84;;;24.09;51.07
50268;BME280;36153;50.960;6.220;2023-06-19T02:51:49;100048.88;;;23.89;51.97
50268;BME280;36153;50.960;6.220;2023-06-19T02:54:49;100061.03;;;23.76;52.65
50268;BME280;36153;50.960;6.220;2023-06-19T02:57:49;100058.53;;;23.73;53.46
50268;BME280;36153;50.960;6.220;2023-06-19T03:00:50;100061.19;;;23.73;52.88
50268;BME280;36153;50.960;6.220;2023-06-19T03:03:50;100068.16;;;23.58;53.44
50268;BME280;36153;50.960;6.220;2023-06-19T03:06:52;100071.81;;;23.73;53.21
50268;BME280;36153;50.960;6.220;2023-06-19T03:09:52;100075.00;;;23.62;53.76
50268;BME280;36153;50.960;6.220;2023-06-19T03:12:53;100078.91;;;23.55;54.26
50268;BME280;36153;50.960;6.220;2023-06-19T03:15:53;100083.28;;;23.56;53.71
50268;BME280;36153;50.960;6.220;2023-06-19T03:18:53;100077.97;;;23.56;53.77
50268;BME280;36153;50.960;6.220;2023-06-19T03:21:54;100085.53;;;23.46;54.81
50268;BME280;36153;50.960;6.220;2023-06-19T03:24:54;100082.78;;;23.30;54.82
50268;BME280;36153;50.960;6.220;2023-06-19T03:27:55;100094.91;;;23.35;55.03
50268;BME280;36153;50.960;6.220;2023-06-19T03:30:56;100104.44;;;23.40;54.70
50268;BME280;36153;50.960;6.220;2023-06-19T03:33:57;100106.13;;;23.41;54.79
50268;BME280;36153;50.960;6.220;2023-06-19T03:36:57;100109.13;;;23.52;54.54
50268;BME280;36153;50.960;6.220;2023-06-19T03:39:58;100121.31;;;23.39;55.83
50268;BME280;36153;50.960;6.220;2023-06-19T03:42:58;100120.41;;;23.38;55.28
50268;BME280;36153;50.960;6.220;2023-06-19T03:45:58;100126.75;;;23.35;56.00
50268;BME280;36153;50.960;6.220;2023-06-19T03:48:59;100134.50;;;23.21;56.39
50268;BME280;36153;50.960;6.220;2023-06-19T03:51:59;100136.38;;;23.19;56.60
50268;BME280;36153;50.960;6.220;2023-06-19T03:55:00;100141.97;;;23.32;56.54
50268;BME280;36153;50.960;6.220;2023-06-19T03:58:00;100142.31;;;23.43;55.66
50268;BME280;36153;50.960;6.220;2023-06-19T04:01:00;100146.53;;;23.66;55.15
50268;BME280;36153;50.960;6.220;2023-06-19T04:04:01;100152.13;;;23.60;55.89
50268;BME280;36153;50.960;6.220;2023-06-19T04:07:01;100152.78;;;23.46;55.83
50268;BME280;36153;50.960;6.220;2023-06-19T04:10:02;100151.72;;;23.50;56.32
50268;BME280;36153;50.960;6.220;2023-06-19T04:13:02;100149.16;;;23.30;57.29
50268;BME280;36153;50.960;6.220;2023-06-19T04:16:03;100165.38;;;23.43;57.09
50268;BME280;36153;50.960;6.220;2023-06-19T04:19:03;100158.91;;;23.85;55.53
50268;BME280;36153;50.960;6.220;2023-06-19T04:22:04;100158.81;;;24.06;54.72
50268;BME280;36153;50.960;6.220;2023-06-19T04:25:06;100153.97;;;24.14;54.08
50268;BME280;36153;50.960;6.220;2023-06-19T04:28:06;100156.16;;;24.23;54.19
50268;BME280;36153;50.960;6.220;2023-06-19T04:31:07;100159.34;;;24.30;53.66
50268;BME280;36153;50.960;6.220;2023-06-19T04:34:07;100168.44;;;24.43;53.21
50268;BME280;36153;50.960;6.220;2023-06-19T04:37:08;100167.88;;;24.36;53.20
50268;BME280;36153;50.960;6.220;2023-06-19T04:40:08;100172.03;;;24.42;53.76
50268;BME280;36153;50.960;6.220;2023-06-19T04:43:09;100175.56;;;24.43;53.38
50268;BME280;36153;50.960;6.220;2023-06-19T04:46:10;100175.78;;;24.38;53.52
50268;BME280;36153;50.960;6.220;2023-06-19T04:49:11;100172.53;;;24.33;53.68
50268;BME280;36153;50.960;6.220;2023-06-19T04:52:11;100163.16;;;24.61;53.10
50268;BME280;36153;50.960;6.220;2023-06-19T04:55:11;100167.22;;;24.84;52.47
50268;BME280;36153;50.960;6.220;2023-06-19T04:58:12;100165.75;;;24.78;52.05
50268;BME280;36153;50.960;6.220;2023-06-19T05:01:13;100163.81;;;24.98;51.77
50268;BME280;36153;50.960;6.220;2023-06-19T05:04:13;100171.16;;;25.10;51.29
50268;BME280;36153;50.960;6.220;2023-06-19T05:07:13;100170.88;;;24.99;51.47
50268;BME280;36153;50.960;6.220;2023-06-19T05:10:17;100175.47;;;25.29;50.84
50268;BME280;36153;50.960;6.220;2023-06-19T05:13:19;100178.44;;;25.07;51.49
50268;BME280;36153;50.960;6.220;2023-06-19T05:16:19;100176.63;;;25.41;50.72
50268;BME280;36153;50.960;6.220;2023-06-19T05:19:20;100182.41;;;25.31;50.94
50268;BME280;36153;50.960;6.220;2023-06-19T05:22:20;100187.06;;;25.28;51.21
50268;BME280;36153;50.960;6.220;2023-06-19T05:25:21;100179.91;;;25.46;51.17
50268;BME280;36153;50.960;6.220;2023-06-19T05:28:22;100187.28;;;25.56;50.30
50268;BME280;36153;50.960;6.220;2023-06-19T05:31:22;100184.38;;;25.61;50.41
50268;BME280;36153;50.960;6.220;2023-06-19T05:34:22;100197.25;;;25.37;51.16
50268;BME280;36153;50.960;6.220;2023-06-19T05:37:23;100193.97;;;25.32;51.20
50268;BME280;36153;50.960;6.220;2023-06-19T05:40:23;100205.31;;;25.35;50.72
50268;BME280;36153;50.960;6.220;2023-06-19T05:43:24;100200.69;;;25.39;50.88
50268;BME280;36153;50.960;6.220;2023-06-19T05:46:27;100201.59;;;25.22;50.97
50268;BME280;36153;50.960;6.220;2023-06-19T05:49:27;100213.84;;;25.25;50.80
50268;BME280;36153;50.960;6.220;2023-06-19T05:52:28;100208.19;;;24.81;51.82
50268;BME280;36153;50.960;6.220;2023-06-19T05:55:28;100210.31;;;24.75;52.43
50268;BME280;36153;50.960;6.220;2023-06-19T05:58:28;100207.06;;;24.85;52.09
50268;BME280;36153;50.960;6.220;2023-06-19T06:01:29;100208.63;;;24.90;51.86
50268;BME280;36153;50.960;6.220;2023-06-19T06:04:29;100207.34;;;24.63;52.85
50268;BME280;36153;50.960;6.220;2023-06-19T06:07:32;100212.63;;;24.98;52.22
50268;BME280;36153;50.960;6.220;2023-06-19T06:10:33;100209.13;;;25.14;51.42
50268;BME280;36153;50.960;6.220;2023-06-19T06:13:33;100224.31;;;25.12;51.81
50268;BME280;36153;50.960;6.220;2023-06-19T06:16:33;100225.50;;;24.73;52.51
50268;BME280;36153;50.960;6.220;2023-06-19T06:19:34;100234.50;;;24.70;52.61
50268;BME280;36153;50.960;6.220;2023-06-19T06:22:34;100239.09;;;24.49;53.58
50268;BME280;36153;50.960;6.220;2023-06-19T06:25:35;100242.56;;;24.68;52.92
50268;BME280;36153;50.960;6.220;2023-06-19T06:28:35;100249.19;;;24.42;53.83
50268;BME280;36153;50.960;6.220;2023-06-19T06:31:38;100249.28;;;24.76;53.81
50268;BME280;36153;50.960;6.220;2023-06-19T06:34:38;100246.84;;;24.36;54.52
50268;BME280;36153;50.960;6.220;2023-06-19T06:37:40;100253.69;;;24.77;53.98
50268;BME280;36153;50.960;6.220;2023-06-19T06:40:40;100251.31;;;24.88;53.54
50268;BME280;36153;50.960;6.220;2023-06-19T06:43:42;100260.59;;;25.14;53.57
50268;BME280;36153;50.960;6.220;2023-06-19T06:46:43;100261.97;;;25.21;52.53
50268;BME280;36153;50.960;6.220;2023-06-19T06:49:43;100261.41;;;25.50;52.15
50268;BME280;36153;50.960;6.220;2023-06-19T06:52:44;100267.16;;;25.74;51.46
50268;BME280;36153;50.960;6.220;2023-06-19T06:55:44;100269.16;;;26.02;51.12
50268;BME280;36153;50.960;6.220;2023-06-19T06:58:44;100261.84;;;25.58;51.58
50268;BME280;36153;50.960;6.220;2023-06-19T07:01:47;100268.97;;;25.58;51.64
50268;BME280;36153;50.960;6.220;2023-06-19T07:04:48;100269.06;;;25.88;51.05
50268;BME280;36153;50.960;6.220;2023-06-19T07:07:48;100272.56;;;25.88;50.71
50268;BME280;36153;50.960;6.220;2023-06-19T07:10:49;100269.59;;;25.95;50.56
50268;BME280;36153;50.960;6.220;2023-06-19T07:13:49;100281.22;;;26.10;50.22
50268;BME280;36153;50.960;6.220;2023-06-19T07:16:50;100278.63;;;26.24;49.56
50268;BME280;36153;50.960;6.220;2023-06-19T07:19:50;100277.91;;;26.20;49.71
50268;BME280;36153;50.960;6.220;2023-06-19T07:22:52;100284.72;;;26.26;49.62
50268;BME280;36153;50.960;6.220;2023-06-19T07:25:53;100290.50;;;26.18;49.70
50268;BME280;36153;50.960;6.220;2023-06-19T07:28:53;100288.25;;;26.11;50.09
50268;BME280;36153;50.960;6.220;2023-06-19T07:31:53;100296.34;;;26.09;49.96
50268;BME280;36153;50.960;6.220;2023-06-19T07:34:54;100294.44;;;25.95;50.03
50268;BME280;36153;50.960;6.220;2023-06-19T07:37:54;100294.47;;;26.11;49.54
50268;BME280;36153;50.960;6.220;2023-06-19T07:40:55;100299.44;;;26.80;48.07
50268;BME280;36153;50.960;6.220;2023-06-19T07:43:55;100299.16;;;27.44;46.98
50268;BME280;36153;50.960;6.220;2023-06-19T07:46:56;100307.34;;;27.55;46.19
50268;BME280;36153;50.960;6.220;2023-06-19T07:49:56;100307.72;;;27.49;46.74
50268;BME280;36153;50.960;6.220;2023-06-19T07:52:56;100307.63;;;27.65;46.07
50268;BME280;36153;50.960;6.220;2023-06-19T07:55:57;100314.09;;;27.89;45.73
50268;BME280;36153;50.960;6.220;2023-06-19T07:58:57;100309.34;;;27.51;46.00
50268;BME280;36153;50.960;6.220;2023-06-19T08:01:58;100311.31;;;27.33;46.63
50268;BME280;36153;50.960;6.220;2023-06-19T08:04:58;100316.78;;;27.32;46.36
50268;BME280;36153;50.960;6.220;2023-06-19T08:07:59;100314.41;;;27.41;46.87
50268;BME280;36153;50.960;6.220;2023-06-19T08:11:00;100319.53;;;27.16;47.35
50268;BME280;36153;50.960;6.220;2023-06-19T08:14:00;100317.84;;;28.29;45.48
50268;BME280;36153;50.960;6.220;2023-06-19T08:17:01;100318.38;;;29.01;43.25
50268;BME280;36153;50.960;6.220;2023-06-19T08:20:02;100308.81;;;28.71;42.95
50268;BME280;36153;50.960;6.220;2023-06-19T08:23:05;100309.03;;;28.26;43.45
50268;BME280;36153;50.960;6.220;2023-06-19T08:26:05;100311.22;;;28.61;42.81
50268;BME280;36153;50.960;6.220;2023-06-19T08:29:08;100310.03;;;28.25;43.63
50268;BME280;36153;50.960;6.220;2023-06-19T08:32:08;100320.91;;;28.22;44.11
50268;BME280;36153;50.960;6.220;2023-06-19T08:35:09;100315.94;;;27.74;44.31
50268;BME280;36153;50.960;6.220;2023-06-19T08:38:10;100313.41;;;28.00;44.24
50268;BME280;36153;50.960;6.220;2023-06-19T08:41:10;100315.53;;;27.95;43.73
50268;BME280;36153;50.960;6.220;2023-06-19T08:44:11;100307.50;;;28.37;43.55
50268;BME280;36153;50.960;6.220;2023-06-19T08:47:11;100313.19;;;28.72;42.08
50268;BME280;36153;50.960;6.220;2023-06-19T08:50:11;100322.19;;;28.71;41.44
50268;BME280;36153;50.960;6.220;2023-06-19T08:53:12;100313.31;;;28.43;42.20
50268;BME280;36153;50.960;6.220;2023-06-19T08:56:13;100323.66;;;27.79;43.32
50268;BME280;36153;50.960;6.220;2023-06-19T08:59:16;100320.97;;;28.63;41.73
50268;BME280;36153;50.960;6.220;2023-06-19T09:02:17;100327.34;;;28.87;41.64
50268;BME280;36153;50.960;6.220;2023-06-19T09:05:18;100326.38;;;29.28;40.97
50268;BME280;36153;50.960;6.220;2023-06-19T09:08:20;100322.31;;;28.83;40.82
50268;BME280;36153;50.960;6.220;2023-06-19T09:11:21;100329.13;;;28.34;41.67
50268;BME280;36153;50.960;6.220;2023-06-19T09:14:24;100329.72;;;28.92;40.58
50268;BME280;36153;50.960;6.220;2023-06-19T09:17:31;100332.19;;;28.55;41.48
50268;BME280;36153;50.960;6.220;2023-06-19T09:20:33;100334.47;;;29.14;40.27
50268;BME280;36153;50.960;6.220;2023-06-19T09:23:34;100330.00;;;29.40;38.41
50268;BME280;36153;50.960;6.220;2023-06-19T09:26:35;100331.06;;;29.63;38.82
50268;BME280;36153;50.960;6.220;2023-06-19T09:29:42;100340.50;;;29.43;38.62
50268;BME280;36153;50.960;6.220;2023-06-19T09:32:43;100327.25;;;29.92;37.75
50268;BME280;36153;50.960;6.220;2023-06-19T09:35:43;100336.22;;;29.54;37.92
50268;BME280;36153;50.960;6.220;2023-06-19T09:38:45;100346.16;;;29.77;35.98
50268;BME280;36153;50.960;6.220;2023-06-19T09:41:46;100346.63;;;29.45;37.63
50268;BME280;36153;50.960;6.220;2023-06-19T09:44:51;100338.66;;;29.70;37.13
50268;BME280;36153;50.960;6.220;2023-06-19T09:47:55;100342.44;;;30.41;35.78
50268;BME280;36153;50.960;6.220;2023-06-19T09:51:20;100335.34;;;30.40;35.10
50268;BME280;36153;50.960;6.220;2023-06-19T09:54:21;100337.50;;;30.35;36.13
50268;BME280;36153;50.960;6.220;2023-06-19T09:57:22;100338.28;;;30.37;36.15
50268;BME280;36153;50.960;6.220;2023-06-19T10:00:23;100332.69;;;30.76;35.08
50268;BME280;36153;50.960;6.220;2023-06-19T10:03:31;100339.19;;;30.49;34.07
50268;BME280;36153;50.960;6.220;2023-06-19T10:06:32;100334.19;;;30.07;35.26
50268;BME280;36153;50.960;6.220;2023-06-19T10:09:32;100336.19;;;29.92;35.46
50268;BME280;36153;50.960;6.220;2023-06-19T10:12:41;100338.19;;;30.74;34.27
50268;BME280;36153;50.960;6.220;2023-06-19T10:15:43;100334.69;;;31.09;34.16
50268;BME280;36153;50.960;6.220;2023-06-19T10:18:45;100339.84;;;31.35;33.67
50268;BME280;36153;50.960;6.220;2023-06-19T10:21:50;100343.03;;;30.93;33.87
50268;BME280;36153;50.960;6.220;2023-06-19T10:24:51;100341.28;;;31.17;33.78
50268;BME280;36153;50.960;6.220;2023-06-19T10:27:51;100336.56;;;30.36;34.84
50268;BME280;36153;50.960;6.220;2023-06-19T10:33:59;100336.16;;;31.25;34.08
50268;BME280;36153;50.960;6.220;2023-06-19T10:37:00;100336.31;;;31.80;33.15
50268;BME280;36153;50.960;6.220;2023-06-19T10:40:00;100335.44;;;32.02;32.69
50268;BME280;36153;50.960;6.220;2023-06-19T10:43:00;100329.53;;;32.31;32.47
50268;BME280;36153;50.960;6.220;2023-06-19T10:46:02;100339.25;;;31.43;32.98
50268;BME280;36153;50.960;6.220;2023-06-19T10:49:05;100340.59;;;31.94;32.61
50268;BME280;36153;50.960;6.220;2023-06-19T10:52:07;100340.69;;;31.36;32.76
50268;BME280;36153;50.960;6.220;2023-06-19T10:55:08;100323.16;;;32.09;32.48
50268;BME280;36153;50.960;6.220;2023-06-19T10:58:08;100334.81;;;32.21;32.48
50268;BME280;36153;50.960;6.220;2023-06-19T11:01:10;100328.63;;;31.75;32.70
50268;BME280;36153;50.960;6.220;2023-06-19T11:04:12;100334.47;;;31.69;32.53
50268;BME280;36153;50.960;6.220;2023-06-19T11:07:13;100326.59;;;32.11;31.86
50268;BME280;36153;50.960;6.220;2023-06-19T11:10:19;100326.72;;;32.86;30.72
50268;BME280;36153;50.960;6.220;2023-06-19T11:13:20;100327.59;;;32.54;30.94
50268;BME280;36153;50.960;6.220;2023-06-19T11:16:21;100310.69;;;33.27;29.91
50268;BME280;36153;50.960;6.220;2023-06-19T11:19:22;100321.28;;;33.80;29.53
50268;BME280;36153;50.960;6.220;2023-06-19T11:22:36;100311.31;;;34.80;27.57
50268;BME280;36153;50.960;6.220;2023-06-19T11:25:39;100312.88;;;34.53;28.45
50268;BME280;36153;50.960;6.220;2023-06-19T11:28:40;100312.28;;;35.46;28.02
50268;BME280;36153;50.960;6.220;2023-06-19T11:31:40;100305.63;;;34.64;28.30
50268;BME280;36153;50.960;6.220;2023-06-19T11:34:40;100312.09;;;33.93;28.39
50268;BME280;36153;50.960;6.220;2023-06-19T11:37:42;100299.88;;;33.98;28.02
50268;BME280;36153;50.960;6.220;2023-06-19T11:40:43;100309.50;;;33.20;29.13
50268;BME280;36153;50.960;6.220;2023-06-19T11:43:45;100311.34;;;33.50;28.79
50268;BME280;36153;50.960;6.220;2023-06-19T11:46:46;100301.25;;;33.83;28.33
50268;BME280;36153;50.960;6.220;2023-06-19T11:49:50;100291.19;;;33.85;28.45
50268;BME280;36153;50.960;6.220;2023-06-19T11:52:51;100289.38;;;34.25;27.91
50268;BME280;36153;50.960;6.220;2023-06-19T11:55:51;100293.09;;;34.63;27.40
50268;BME280;36153;50.960;6.220;2023-06-19T11:58:51;100294.19;;;34.21;27.78
50268;BME280;36153;50.960;6.220;2023-06-19T12:01:52;100307.00;;;34.09;28.68
50268;BME280;36153;50.960;6.220;2023-06-19T12:04:52;100306.19;;;33.37;29.28
50268;BME280;36153;50.960;6.220;2023-06-19T12:07:53;100300.66;;;33.79;28.88
50268;BME280;36153;50.960;6.220;2023-06-19T12:10:54;100303.91;;;33.73;29.09
50268;BME280;36153;50.960;6.220;2023-06-19T12:13:54;100307.25;;;33.56;29.15
50268;BME280;36153;50.960;6.220;2023-06-19T12:16:56;100306.34;;;33.76;28.95
50268;BME280;36153;50.960;6.220;2023-06-19T12:19:56;100303.66;;;33.45;29.12
50268;BME280;36153;50.960;6.220;2023-06-19T12:22:56;100313.66;;;33.55;29.22
50268;BME280;36153;50.960;6.220;2023-06-19T12:25:57;100314.09;;;33.29;29.46
50268;BME280;36153;50.960;6.220;2023-06-19T12:28:57;100312.34;;;33.80;29.01
50268;BME280;36153;50.960;6.220;2023-06-19T12:32:02;100312.06;;;33.83;29.36
50268;BME280;36153;50.960;6.220;2023-06-19T12:35:03;100313.53;;;33.66;28.50
50268;BME280;36153;50.960;6.220;2023-06-19T12:38:04;100306.28;;;33.66;28.93
50268;BME280;36153;50.960;6.220;2023-06-19T12:41:04;100311.47;;;34.49;28.14
50268;BME280;36153;50.960;6.220;2023-06-19T12:44:05;100298.59;;;35.00;27.45
50268;BME280;36153;50.960;6.220;2023-06-19T12:47:06;100300.50;;;34.41;28.43
50268;BME280;36153;50.960;6.220;2023-06-19T12:50:07;100299.38;;;34.83;27.69
50268;BME280;36153;50.960;6.220;2023-06-19T12:53:07;100291.22;;;34.93;27.66
50268;BME280;36153;50.960;6.220;2023-06-19T12:56:08;100286.56;;;35.22;27.39
50268;BME280;36153;50.960;6.220;2023-06-19T12:59:08;100282.94;;;35.04;27.85
50268;BME280;36153;50.960;6.220;2023-06-19T13:02:09;100284.81;;;35.03;27.76
50268;BME280;36153;50.960;6.220;2023-06-19T13:05:10;100277.97;;;34.99;27.71
50268;BME280;36153;50.960;6.220;2023-06-19T13:08:11;100273.72;;;34.77;27.28
50268;BME280;36153;50.960;6.220;2023-06-19T13:11:12;100267.59;;;34.75;27.40
50268;BME280;36153;50.960;6.220;2023-06-19T13:14:13;100276.28;;;34.89;26.89
50268;BME280;36153;50.960;6.220;2023-06-19T13:17:14;100278.00;;;34.90;26.66
50268;BME280;36153;50.960;6.220;2023-06-19T13:20:16;100277.25;;;35.45;26.28
50268;BME280;36153;50.960;6.220;2023-06-19T13:23:16;100277.72;;;36.14;25.88
50268;BME280;36153;50.960;6.220;2023-06-19T13:26:17;100281.72;;;35.64;25.82
50268;BME280;36153;50.960;6.220;2023-06-19T13:29:18;100274.59;;;35.63;26.26
50268;BME280;36153;50.960;6.220;2023-06-19T13:32:19;100263.09;;;36.07;25.61
50268;BME280;36153;50.960;6.220;2023-06-19T13:35:19;100269.50;;;35.60;26.20
50268;BME280;36153;50.960;6.220;2023-06-19T13:38:21;100264.59;;;36.37;25.94
50268;BME280;36153;50.960;6.220;2023-06-19T13:41:22;100257.44;;;36.00;25.14
50268;BME280;36153;50.960;6.220;2023-06-19T13:44:27;100261.88;;;35.73;25.60
50268;BME280;36153;50.960;6.220;2023-06-19T13:47:27;100260.75;;;35.94;24.63
50268;BME280;36153;50.960;6.220;2023-06-19T13:50:28;100250.72;;;36.40;24.49
50268;BME280;36153;50.960;6.220;2023-06-19T13:53:28;100259.34;;;35.89;25.03
50268;BME280;36153;50.960;6.220;2023-06-19T13:56:30;100254.56;;;35.55;25.21
50268;BME280;36153;50.960;6.220;2023-06-19T13:59:31;100246.06;;;35.68;24.99
50268;BME280;36153;50.960;6.220;2023-06-19T14:02:31;100243.97;;;35.90;24.96
50268;BME280;36153;50.960;6.220;2023-06-19T14:05:33;100242.81;;;36.29;24.37
50268;BME280;36153;50.960;6.220;2023-06-19T14:08:33;100236.97;;;36.60;24.14
50268;BME280;36153;50.960;6.220;2023-06-19T14:11:34;100242.59;;;37.53;23.56
50268;BME280;36153;50.960;6.220;2023-06-19T14:14:34;100242.50;;;36.94;23.90
50268;BME280;36153;50.960;6.220;2023-06-19T14:17:35;100232.44;;;36.42;24.46
50268;BME280;36153;50.960;6.220;2023-06-19T14:20:36;100245.16;;;36.86;24.38
50268;BME280;36153;50.960;6.220;2023-06-19T14:23:36;100239.03;;;37.18;24.21
50268;BME280;36153;50.960;6.220;2023-06-19T14:26:42;100240.88;;;37.52;23.60
50268;BME280;36153;50.960;6.220;2023-06-19T14:29:43;100229.88;;;37.46;23.21
50268;BME280;36153;50.960;6.220;2023-06-19T14:32:43;100227.13;;;37.37;23.25
50268;BME280;36153;50.960;6.220;2023-06-19T14:35:44;100225.94;;;37.40;22.84
50268;BME280;36153;50.960;6.220;2023-06-19T14:38:45;100230.44;;;36.97;23.66
50268;BME280;36153;50.960;6.220;2023-06-19T14:41:46;100221.97;;;36.92;23.16
50268;BME280;36153;50.960;6.220;2023-06-19T14:44:46;100221.13;;;36.73;23.46
50268;BME280;36153;50.960;6.220;2023-06-19T14:47:47;100213.31;;;36.70;23.58
50268;BME280;36153;50.960;6.220;2023-06-19T14:50:47;100219.44;;;36.98;23.62
50268;BME280;36153;50.960;6.220;2023-06-19T14:53:47;100211.69;;;37.12;23.57
50268;BME280;36153;50.960;6.220;2023-06-19T14:56:48;100216.94;;;37.39;23.05
50268;BME280;36153;50.960;6.220;2023-06-19T14:59:50;100216.06;;;37.04;22.95
50268;BME280;36153;50.960;6.220;2023-06-19T15:02:50;100217.91;;;36.96;22.69
50268;BME280;36153;50.960;6.220;2023-06-19T15:05:50;100220.25;;;36.90;22.48
50268;BME280;36153;50.960;6.220;2023-06-19T15:08:51;100207.00;;;37.73;22.31
50268;BME280;36153;50.960;6.220;2023-06-19T15:11:51;100205.22;;;37.39;22.13
50268;BME280;36153;50.960;6.220;2023-06-19T15:14:52;100207.56;;;37.34;22.85
50268;BME280;36153;50.960;6.220;2023-06-19T15:17:52;100196.78;;;37.58;22.08
50268;BME280;36153;50.960;6.220;2023-06-19T15:20:53;100204.44;;;37.20;22.81
50268;BME280;36153;50.960;6.220;2023-06-19T15:23:54;100196.28;;;36.15;24.12
50268;BME280;36153;50.960;6.220;2023-06-19T15:26:57;100188.53;;;36.20;23.90
50268;BME280;36153;50.960;6.220;2023-06-19T15:29:59;100187.97;;;36.79;23.24
50268;BME280;36153;50.960;6.220;2023-06-19T15:32:59;100186.44;;;37.11;22.53
50268;BME280;36153;50.960;6.220;2023-06-19T15:36:00;100185.13;;;36.63;23.19
50268;BME280;36153;50.960;6.220;2023-06-19T15:39:00;100180.75;;;36.44;23.53
50268;BME280;36153;50.960;6.220;2023-06-19T15:42:00;100183.63;;;36.68;22.70
50268;BME280;36153;50.960;6.220;2023-06-19T15:45:01;100173.13;;;36.21;22.70
50268;BME280;36153;50.960;6.220;2023-06-19T15:48:01;100170.47;;;36.73;22.94
50268;BME280;36153;50.960;6.220;2023-06-19T15:51:02;100171.75;;;36.61;22.99